sensor_id;sensor_type;location;lat;lon;timestamp;temperature;humidity
63202;DHT22;49296;48.188;11.566;2023-03-14T00:00:03;12.89;67.83
63202;DHT22;49296;48.188;11.566;2023-03-14T00:02:31;12.86;67.74
63202;DHT22;49296;48.188;11.566;2023-03-14T00:04:57;12.83;67.70
63202;DHT22;49296;48.188;11.566;2023-03-14T00:07:25;12.82;67.71
63202;DHT22;49296;48.188;11.566;2023-03-14T00:09:53;12.59;68.15
63202;DHT22;49296;48.188;11.566;2023-03-14T00:12:20;12.35;69.16
63202;DHT22;49296;48.188;11.566;2023-03-14T00:14:46;12.41;69.00
63202;DHT22;49296;48.188;11.566;2023-03-14T00:17:13;12.44;68.94
63202;DHT22;49296;48.188;11.566;2023-03-14T00:19:40;12.48;68.92
63202;DHT22;49296;48.188;11.566;2023-03-14T00:22:06;12.57;68.76
63202;DHT22;49296;48.188;11.566;2023-03-14T00:24:34;12.57;68.76
63202;DHT22;49296;48.188;11.566;2023-03-14T00:27:01;12.53;68.85
63202;DHT22;49296;48.188;11.566;2023-03-14T00:29:28;12.59;68.80
63202;DHT22;49296;48.188;11.566;2023-03-14T00:31:54;12.57;68.81
63202;DHT22;49296;48.188;11.566;2023-03-14T00:34:21;12.50;68.84
63202;DHT22;49296;48.188;11.566;2023-03-14T00:36:47;12.66;68.49
63202;DHT22;49296;48.188;11.566;2023-03-14T00:39:14;12.70;68.32
63202;DHT22;49296;48.188;11.566;2023-03-14T00:41:42;12.69;68.36
63202;DHT22;49296;48.188;11.566;2023-03-14T00:44:09;12.72;68.28
63202;DHT22;49296;48.188;11.566;2023-03-14T00:46:36;12.59;68.68
63202;DHT22;49296;48.188;11.566;2023-03-14T00:49:02;12.45;69.20
63202;DHT22;49296;48.188;11.566;2023-03-14T00:51:29;12.32;69.81
63202;DHT22;49296;48.188;11.566;2023-03-14T00:53:56;12.31;69.72
63202;DHT22;49296;48.188;11.566;2023-03-14T00:56:22;12.31;69.65
63202;DHT22;49296;48.188;11.566;2023-03-14T00:58:53;12.27;69.83
63202;DHT22;49296;48.188;11.566;2023-03-14T01:01:19;12.14;70.38
63202;DHT22;49296;48.188;11.566;2023-03-14T01:03:46;12.21;70.38
63202;DHT22;49296;48.188;11.566;2023-03-14T01:06:15;12.07;70.81
63202;DHT22;49296;48.188;11.566;2023-03-14T01:08:42;12.00;71.46
63202;DHT22;49296;48.188;11.566;2023-03-14T01:11:11;12.00;72.00
63202;DHT22;49296;48.188;11.566;2023-03-14T01:13:38;11.82;73.14
63202;DHT22;49296;48.188;11.566;2023-03-14T01:16:08;11.95;73.13
63202;DHT22;49296;48.188;11.566;2023-03-14T01:18:36;11.80;73.64
63202;DHT22;49296;48.188;11.566;2023-03-14T01:21:03;11.79;73.80
63202;DHT22;49296;48.188;11.566;2023-03-14T01:23:30;11.83;73.82
63202;DHT22;49296;48.188;11.566;2023-03-14T01:25:56;11.97;73.51
63202;DHT22;49296;48.188;11.566;2023-03-14T01:28:23;11.93;74.27
63202;DHT22;49296;48.188;11.566;2023-03-14T01:30:50;11.79;74.94
63202;DHT22;49296;48.188;11.566;2023-03-14T01:33:18;11.72;74.62
63202;DHT22;49296;48.188;11.566;2023-03-14T01:35:45;11.63;75.10
63202;DHT22;49296;48.188;11.566;2023-03-14T01:38:13;11.66;75.98
63202;DHT22;49296;48.188;11.566;2023-03-14T01:40:44;11.62;76.49
63202;DHT22;49296;48.188;11.566;2023-03-14T01:43:14;11.52;77.29
63202;DHT22;49296;48.188;11.566;2023-03-14T01:46:12;11.25;77.36
63202;DHT22;49296;48.188;11.566;2023-03-14T01:48:53;11.32;77.49
63202;DHT22;49296;48.188;11.566;2023-03-14T01:51:25;11.23;78.21
63202;DHT22;49296;48.188;11.566;2023-03-14T01:53:55;11.18;78.45
63202;DHT22;49296;48.188;11.566;2023-03-14T01:56:25;11.00;78.57
63202;DHT22;49296;48.188;11.566;2023-03-14T01:58:53;10.89;79.55
63202;DHT22;49296;48.188;11.566;2023-03-14T02:01:24;10.65;79.51
63202;DHT22;49296;48.188;11.566;2023-03-14T02:03:55;10.53;81.31
63202;DHT22;49296;48.188;11.566;2023-03-14T02:06:24;10.51;81.31
63202;DHT22;49296;48.188;11.566;2023-03-14T02:08:52;10.59;80.71
63202;DHT22;49296;48.188;11.566;2023-03-14T02:11:19;10.28;81.18
63202;DHT22;49296;48.188;11.566;2023-03-14T02:13:47;10.41;81.45
63202;DHT22;49296;48.188;11.566;2023-03-14T02:16:14;10.31;81.40
63202;DHT22;49296;48.188;11.566;2023-03-14T02:18:41;10.13;81.74
63202;DHT22;49296;48.188;11.566;2023-03-14T02:21:14;10.14;81.50
63202;DHT22;49296;48.188;11.566;2023-03-14T02:23:51;10.04;81.33
63202;DHT22;49296;48.188;11.566;2023-03-14T02:26:22;10.00;81.21
63202;DHT22;49296;48.188;11.566;2023-03-14T02:28:51;9.97;81.41
63202;DHT22;49296;48.188;11.566;2023-03-14T02:31:22;9.99;81.41
63202;DHT22;49296;48.188;11.566;2023-03-14T02:33:49;10.13;80.68
63202;DHT22;49296;48.188;11.566;2023-03-14T02:36:18;10.11;80.54
63202;DHT22;49296;48.188;11.566;2023-03-14T02:38:50;10.16;80.53
63202;DHT22;49296;48.188;11.566;2023-03-14T02:41:18;10.21;79.94
63202;DHT22;49296;48.188;11.566;2023-03-14T02:43:44;10.38;79.78
63202;DHT22;49296;48.188;11.566;2023-03-14T02:46:14;10.52;79.45
63202;DHT22;49296;48.188;11.566;2023-03-14T02:48:45;10.49;79.31
63202;DHT22;49296;48.188;11.566;2023-03-14T02:51:15;10.68;78.65
63202;DHT22;49296;48.188;11.566;2023-03-14T02:53:42;10.61;78.22
63202;DHT22;49296;48.188;11.566;2023-03-14T02:56:09;10.70;78.06
63202;DHT22;49296;48.188;11.566;2023-03-14T02:58:36;10.62;78.29
63202;DHT22;49296;48.188;11.566;2023-03-14T03:01:03;10.48;77.27
63202;DHT22;49296;48.188;11.566;2023-03-14T03:03:31;10.38;78.08
63202;DHT22;49296;48.188;11.566;2023-03-14T03:05:58;10.33;78.41
63202;DHT22;49296;48.188;11.566;2023-03-14T03:08:26;10.09;78.42
63202;DHT22;49296;48.188;11.566;2023-03-14T03:10:54;10.13;78.33
63202;DHT22;49296;48.188;11.566;2023-03-14T03:13:20;10.09;78.78
63202;DHT22;49296;48.188;11.566;2023-03-14T03:15:47;10.11;77.87
63202;DHT22;49296;48.188;11.566;2023-03-14T03:18:14;10.10;77.50
63202;DHT22;49296;48.188;11.566;2023-03-14T03:20:42;10.06;77.98
63202;DHT22;49296;48.188;11.566;2023-03-14T03:23:08;10.07;78.05
63202;DHT22;49296;48.188;11.566;2023-03-14T03:25:35;10.01;77.70
63202;DHT22;49296;48.188;11.566;2023-03-14T03:28:02;10.03;77.50
63202;DHT22;49296;48.188;11.566;2023-03-14T03:30:34;10.06;77.47
63202;DHT22;49296;48.188;11.566;2023-03-14T03:33:03;9.97;77.85
63202;DHT22;49296;48.188;11.566;2023-03-14T03:35:29;9.94;77.84
63202;DHT22;49296;48.188;11.566;2023-03-14T03:37:57;9.90;77.67
63202;DHT22;49296;48.188;11.566;2023-03-14T03:40:24;9.92;76.79
63202;DHT22;49296;48.188;11.566;2023-03-14T03:42:51;9.92;77.24
63202;DHT22;49296;48.188;11.566;2023-03-14T03:45:18;9.85;76.38
63202;DHT22;49296;48.188;11.566;2023-03-14T03:47:44;9.76;76.60
63202;DHT22;49296;48.188;11.566;2023-03-14T03:50:11;9.73;77.01
63202;DHT22;49296;48.188;11.566;2023-03-14T03:52:38;9.69;77.40
63202;DHT22;49296;48.188;11.566;2023-03-14T03:55:07;9.76;76.95
63202;DHT22;49296;48.188;11.566;2023-03-14T03:57:34;9.73;76.52
63202;DHT22;49296;48.188;11.566;2023-03-14T04:00:00;9.73;76.49
63202;DHT22;49296;48.188;11.566;2023-03-14T04:02:27;9.59;76.90
63202;DHT22;49296;48.188;11.566;2023-03-14T04:04:53;9.58;76.06
63202;DHT22;49296;48.188;11.566;2023-03-14T04:07:20;9.55;75.70
63202;DHT22;49296;48.188;11.566;2023-03-14T04:09:46;9.61;75.45
63202;DHT22;49296;48.188;11.566;2023-03-14T04:12:14;9.61;74.60
63202;DHT22;49296;48.188;11.566;2023-03-14T04:14:41;9.61;74.75
63202;DHT22;49296;48.188;11.566;2023-03-14T04:17:07;9.63;75.21
63202;DHT22;49296;48.188;11.566;2023-03-14T04:19:34;9.56;75.38
63202;DHT22;49296;48.188;11.566;2023-03-14T04:22:01;9.49;75.14
63202;DHT22;49296;48.188;11.566;2023-03-14T04:24:28;9.39;75.42
63202;DHT22;49296;48.188;11.566;2023-03-14T04:26:55;9.35;75.94
63202;DHT22;49296;48.188;11.566;2023-03-14T04:29:23;9.38;75.88
63202;DHT22;49296;48.188;11.566;2023-03-14T04:31:49;9.39;75.74
63202;DHT22;49296;48.188;11.566;2023-03-14T04:34:16;9.44;75.51
63202;DHT22;49296;48.188;11.566;2023-03-14T04:36:42;9.41;75.29
63202;DHT22;49296;48.188;11.566;2023-03-14T04:39:10;9.37;75.47
63202;DHT22;49296;48.188;11.566;2023-03-14T04:41:36;9.37;75.19
63202;DHT22;49296;48.188;11.566;2023-03-14T04:44:04;9.39;75.15
63202;DHT22;49296;48.188;11.566;2023-03-14T04:46:33;9.35;75.19
63202;DHT22;49296;48.188;11.566;2023-03-14T04:48:59;9.39;74.96
63202;DHT22;49296;48.188;11.566;2023-03-14T04:51:26;9.30;74.78
63202;DHT22;49296;48.188;11.566;2023-03-14T04:53:53;9.27;74.79
63202;DHT22;49296;48.188;11.566;2023-03-14T04:56:20;9.24;75.16
63202;DHT22;49296;48.188;11.566;2023-03-14T04:58:47;9.28;74.80
63202;DHT22;49296;48.188;11.566;2023-03-14T05:01:14;9.27;74.88
63202;DHT22;49296;48.188;11.566;2023-03-14T05:03:42;9.27;74.78
63202;DHT22;49296;48.188;11.566;2023-03-14T05:06:08;9.37;74.58
63202;DHT22;49296;48.188;11.566;2023-03-14T05:08:35;9.32;74.35
63202;DHT22;49296;48.188;11.566;2023-03-14T05:11:02;9.30;74.39
63202;DHT22;49296;48.188;11.566;2023-03-14T05:13:29;9.24;74.18
63202;DHT22;49296;48.188;11.566;2023-03-14T05:16:04;9.32;74.23
63202;DHT22;49296;48.188;11.566;2023-03-14T05:18:30;9.30;74.07
63202;DHT22;49296;48.188;11.566;2023-03-14T05:20:58;9.26;74.61
63202;DHT22;49296;48.188;11.566;2023-03-14T05:23:25;9.26;74.43
63202;DHT22;49296;48.188;11.566;2023-03-14T05:25:52;9.20;74.63
63202;DHT22;49296;48.188;11.566;2023-03-14T05:28:18;9.31;74.27
63202;DHT22;49296;48.188;11.566;2023-03-14T05:30:45;9.26;74.80
63202;DHT22;49296;48.188;11.566;2023-03-14T05:33:12;9.26;74.27
63202;DHT22;49296;48.188;11.566;2023-03-14T05:35:39;9.31;74.14
63202;DHT22;49296;48.188;11.566;2023-03-14T05:38:07;9.44;74.14
63202;DHT22;49296;48.188;11.566;2023-03-14T05:40:34;9.35;74.17
63202;DHT22;49296;48.188;11.566;2023-03-14T05:43:00;9.38;74.21
63202;DHT22;49296;48.188;11.566;2023-03-14T05:45:27;9.38;73.94
63202;DHT22;49296;48.188;11.566;2023-03-14T05:47:53;9.31;73.95
63202;DHT22;49296;48.188;11.566;2023-03-14T05:50:20;9.26;74.16
63202;DHT22;49296;48.188;11.566;2023-03-14T05:52:47;9.32;74.15
63202;DHT22;49296;48.188;11.566;2023-03-14T05:55:15;9.31;74.06
63202;DHT22;49296;48.188;11.566;2023-03-14T05:57:41;9.32;73.90
63202;DHT22;49296;48.188;11.566;2023-03-14T06:00:09;9.32;74.08
63202;DHT22;49296;48.188;11.566;2023-03-14T06:02:36;9.35;73.81
63202;DHT22;49296;48.188;11.566;2023-03-14T06:05:03;9.47;73.34
63202;DHT22;49296;48.188;11.566;2023-03-14T06:07:30;9.42;73.00
63202;DHT22;49296;48.188;11.566;2023-03-14T06:09:57;9.31;73.47
63202;DHT22;49296;48.188;11.566;2023-03-14T06:12:25;9.39;73.38
63202;DHT22;49296;48.188;11.566;2023-03-14T06:14:51;9.37;73.36
63202;DHT22;49296;48.188;11.566;2023-03-14T06:17:18;9.44;73.07
63202;DHT22;49296;48.188;11.566;2023-03-14T06:19:45;9.47;73.09
63202;DHT22;49296;48.188;11.566;2023-03-14T06:22:11;9.48;73.11
63202;DHT22;49296;48.188;11.566;2023-03-14T06:24:38;9.48;72.90
63202;DHT22;49296;48.188;11.566;2023-03-14T06:27:05;9.58;72.90
63202;DHT22;49296;48.188;11.566;2023-03-14T06:29:33;9.65;72.33
63202;DHT22;49296;48.188;11.566;2023-03-14T06:32:00;9.56;72.78
63202;DHT22;49296;48.188;11.566;2023-03-14T06:34:26;9.58;72.85
63202;DHT22;49296;48.188;11.566;2023-03-14T06:36:53;9.71;72.12
63202;DHT22;49296;48.188;11.566;2023-03-14T06:39:20;9.68;72.09
63202;DHT22;49296;48.188;11.566;2023-03-14T06:41:50;9.73;72.04
63202;DHT22;49296;48.188;11.566;2023-03-14T06:44:20;9.83;71.63
63202;DHT22;49296;48.188;11.566;2023-03-14T06:46:48;9.83;70.93
63202;DHT22;49296;48.188;11.566;2023-03-14T06:49:15;9.83;71.33
63202;DHT22;49296;48.188;11.566;2023-03-14T06:51:41;9.83;71.14
63202;DHT22;49296;48.188;11.566;2023-03-14T06:54:08;9.85;70.77
63202;DHT22;49296;48.188;11.566;2023-03-14T06:56:35;9.81;71.08
63202;DHT22;49296;48.188;11.566;2023-03-14T06:59:01;9.92;70.45
63202;DHT22;49296;48.188;11.566;2023-03-14T07:01:29;9.83;70.34
63202;DHT22;49296;48.188;11.566;2023-03-14T07:03:59;9.85;70.40
63202;DHT22;49296;48.188;11.566;2023-03-14T07:06:25;9.96;70.20
63202;DHT22;49296;48.188;11.566;2023-03-14T07:08:54;9.93;70.14
63202;DHT22;49296;48.188;11.566;2023-03-14T07:11:21;10.04;69.67
63202;DHT22;49296;48.188;11.566;2023-03-14T07:13:47;10.09;69.98
63202;DHT22;49296;48.188;11.566;2023-03-14T07:16:14;10.16;69.89
63202;DHT22;49296;48.188;11.566;2023-03-14T07:18:41;10.09;70.09
63202;DHT22;49296;48.188;11.566;2023-03-14T07:21:09;10.14;69.58
63202;DHT22;49296;48.188;11.566;2023-03-14T07:23:36;10.13;69.79
63202;DHT22;49296;48.188;11.566;2023-03-14T07:26:02;10.09;70.00
63202;DHT22;49296;48.188;11.566;2023-03-14T07:28:29;10.10;69.82
63202;DHT22;49296;48.188;11.566;2023-03-14T07:30:56;10.10;69.62
63202;DHT22;49296;48.188;11.566;2023-03-14T07:33:23;10.09;69.43
63202;DHT22;49296;48.188;11.566;2023-03-14T07:35:50;10.03;69.39
63202;DHT22;49296;48.188;11.566;2023-03-14T07:38:18;10.13;69.29
63202;DHT22;49296;48.188;11.566;2023-03-14T07:40:45;10.16;69.35
63202;DHT22;49296;48.188;11.566;2023-03-14T07:43:11;10.16;69.16
63202;DHT22;49296;48.188;11.566;2023-03-14T07:45:38;10.20;68.58
63202;DHT22;49296;48.188;11.566;2023-03-14T07:48:04;10.18;68.97
63202;DHT22;49296;48.188;11.566;2023-03-14T07:50:31;10.20;68.49
63202;DHT22;49296;48.188;11.566;2023-03-14T07:52:58;10.27;68.59
63202;DHT22;49296;48.188;11.566;2023-03-14T07:55:26;10.25;68.73
63202;DHT22;49296;48.188;11.566;2023-03-14T07:57:52;10.35;67.79
63202;DHT22;49296;48.188;11.566;2023-03-14T08:00:20;10.35;68.13
63202;DHT22;49296;48.188;11.566;2023-03-14T08:02:47;10.35;68.10
63202;DHT22;49296;48.188;11.566;2023-03-14T08:05:13;10.48;68.58
63202;DHT22;49296;48.188;11.566;2023-03-14T08:07:40;10.62;67.75
63202;DHT22;49296;48.188;11.566;2023-03-14T08:10:08;10.62;67.37
63202;DHT22;49296;48.188;11.566;2023-03-14T08:12:36;10.51;67.94
63202;DHT22;49296;48.188;11.566;2023-03-14T08:15:03;10.59;68.06
63202;DHT22;49296;48.188;11.566;2023-03-14T08:17:30;10.62;68.83
63202;DHT22;49296;48.188;11.566;2023-03-14T08:19:57;10.56;66.86
63202;DHT22;49296;48.188;11.566;2023-03-14T08:22:24;10.63;67.71
63202;DHT22;49296;48.188;11.566;2023-03-14T08:24:50;10.53;67.42
63202;DHT22;49296;48.188;11.566;2023-03-14T08:27:17;10.63;68.17
63202;DHT22;49296;48.188;11.566;2023-03-14T08:29:45;10.75;67.11
63202;DHT22;49296;48.188;11.566;2023-03-14T08:32:12;10.81;67.26
63202;DHT22;49296;48.188;11.566;2023-03-14T08:34:38;10.79;66.87
63202;DHT22;49296;48.188;11.566;2023-03-14T08:37:05;10.77;66.73
63202;DHT22;49296;48.188;11.566;2023-03-14T08:39:32;10.66;66.35
63202;DHT22;49296;48.188;11.566;2023-03-14T08:41:59;10.87;66.15
63202;DHT22;49296;48.188;11.566;2023-03-14T08:44:26;10.72;66.50
63202;DHT22;49296;48.188;11.566;2023-03-14T08:46:54;10.69;66.52
63202;DHT22;49296;48.188;11.566;2023-03-14T08:49:20;10.68;65.98
63202;DHT22;49296;48.188;11.566;2023-03-14T08:51:47;10.69;66.26
63202;DHT22;49296;48.188;11.566;2023-03-14T08:54:14;10.66;65.97
63202;DHT22;49296;48.188;11.566;2023-03-14T08:56:41;10.69;65.75
63202;DHT22;49296;48.188;11.566;2023-03-14T08:59:08;10.79;65.88
63202;DHT22;49296;48.188;11.566;2023-03-14T09:01:36;10.77;65.23
63202;DHT22;49296;48.188;11.566;2023-03-14T09:04:04;10.70;65.40
63202;DHT22;49296;48.188;11.566;2023-03-14T09:06:32;10.73;65.59
63202;DHT22;49296;48.188;11.566;2023-03-14T09:08:58;10.81;65.15
63202;DHT22;49296;48.188;11.566;2023-03-14T09:11:25;10.86;64.71
63202;DHT22;49296;48.188;11.566;2023-03-14T09:13:52;10.95;64.72
63202;DHT22;49296;48.188;11.566;2023-03-14T09:16:19;10.95;64.57
63202;DHT22;49296;48.188;11.566;2023-03-14T09:18:45;10.90;64.43
63202;DHT22;49296;48.188;11.566;2023-03-14T09:21:14;10.99;64.76
63202;DHT22;49296;48.188;11.566;2023-03-14T09:23:41;11.04;64.34
63202;DHT22;49296;48.188;11.566;2023-03-14T09:26:08;11.03;64.25
63202;DHT22;49296;48.188;11.566;2023-03-14T09:28:34;11.03;64.45
63202;DHT22;49296;48.188;11.566;2023-03-14T09:31:05;11.04;64.35
63202;DHT22;49296;48.188;11.566;2023-03-14T09:33:33;11.06;64.15
63202;DHT22;49296;48.188;11.566;2023-03-14T09:36:00;11.01;62.76
63202;DHT22;49296;48.188;11.566;2023-03-14T09:38:28;11.04;63.40
63202;DHT22;49296;48.188;11.566;2023-03-14T09:40:57;11.14;63.39
63202;DHT22;49296;48.188;11.566;2023-03-14T09:43:26;10.97;63.82
63202;DHT22;49296;48.188;11.566;2023-03-14T09:45:54;11.10;63.30
63202;DHT22;49296;48.188;11.566;2023-03-14T09:48:22;11.06;63.50
63202;DHT22;49296;48.188;11.566;2023-03-14T09:50:53;11.08;63.31
63202;DHT22;49296;48.188;11.566;2023-03-14T09:53:25;11.20;62.68
63202;DHT22;49296;48.188;11.566;2023-03-14T09:55:54;11.20;62.57
63202;DHT22;49296;48.188;11.566;2023-03-14T09:58:24;11.13;62.10
63202;DHT22;49296;48.188;11.566;2023-03-14T10:00:54;11.06;62.50
63202;DHT22;49296;48.188;11.566;2023-03-14T10:03:25;11.08;62.28
63202;DHT22;49296;48.188;11.566;2023-03-14T10:05:54;11.20;62.39
63202;DHT22;49296;48.188;11.566;2023-03-14T10:08:22;11.27;62.22
63202;DHT22;49296;48.188;11.566;2023-03-14T10:10:49;11.28;62.05
63202;DHT22;49296;48.188;11.566;2023-03-14T10:13:19;11.27;62.24
63202;DHT22;49296;48.188;11.566;2023-03-14T10:15:48;11.39;62.33
63202;DHT22;49296;48.188;11.566;2023-03-14T10:18:17;11.58;62.06
63202;DHT22;49296;48.188;11.566;2023-03-14T10:20:48;11.73;62.07
63202;DHT22;49296;48.188;11.566;2023-03-14T10:23:26;11.72;61.75
63202;DHT22;49296;48.188;11.566;2023-03-14T10:26:06;11.95;61.35
63202;DHT22;49296;48.188;11.566;2023-03-14T10:28:38;12.18;60.92
63202;DHT22;49296;48.188;11.566;2023-03-14T10:31:06;12.20;59.98
63202;DHT22;49296;48.188;11.566;2023-03-14T10:33:34;12.16;60.34
63202;DHT22;49296;48.188;11.566;2023-03-14T10:36:26;12.07;59.99
63202;DHT22;49296;48.188;11.566;2023-03-14T10:38:57;11.89;60.39
63202;DHT22;49296;48.188;11.566;2023-03-14T10:41:26;11.95;60.66
63202;DHT22;49296;48.188;11.566;2023-03-14T10:43:57;12.01;60.55
63202;DHT22;49296;48.188;11.566;2023-03-14T10:46:26;11.90;59.97
63202;DHT22;49296;48.188;11.566;2023-03-14T10:48:56;11.94;60.06
63202;DHT22;49296;48.188;11.566;2023-03-14T10:51:25;11.95;59.98
63202;DHT22;49296;48.188;11.566;2023-03-14T10:53:59;11.95;60.06
63202;DHT22;49296;48.188;11.566;2023-03-14T10:56:28;11.86;59.53
63202;DHT22;49296;48.188;11.566;2023-03-14T10:59:02;11.90;59.07
63202;DHT22;49296;48.188;11.566;2023-03-14T11:01:37;11.94;59.40
63202;DHT22;49296;48.188;11.566;2023-03-14T11:04:17;11.98;59.57
63202;DHT22;49296;48.188;11.566;2023-03-14T11:06:55;12.05;59.77
63202;DHT22;49296;48.188;11.566;2023-03-14T11:09:25;12.07;59.33
63202;DHT22;49296;48.188;11.566;2023-03-14T11:12:00;12.13;59.36
63202;DHT22;49296;48.188;11.566;2023-03-14T11:14:36;12.10;58.90
63202;DHT22;49296;48.188;11.566;2023-03-14T11:17:14;12.22;58.45
63202;DHT22;49296;48.188;11.566;2023-03-14T11:19:53;12.32;57.83
63202;DHT22;49296;48.188;11.566;2023-03-14T11:22:25;12.42;57.36
63202;DHT22;49296;48.188;11.566;2023-03-14T11:25:07;12.53;56.91
63202;DHT22;49296;48.188;11.566;2023-03-14T11:27:42;12.66;56.24
63202;DHT22;49296;48.188;11.566;2023-03-14T11:30:21;12.70;56.47
63202;DHT22;49296;48.188;11.566;2023-03-14T11:32:56;12.80;56.17
63202;DHT22;49296;48.188;11.566;2023-03-14T11:35:28;12.77;56.10
63202;DHT22;49296;48.188;11.566;2023-03-14T11:38:02;12.83;56.40
63202;DHT22;49296;48.188;11.566;2023-03-14T11:40:31;12.83;56.05
63202;DHT22;49296;48.188;11.566;2023-03-14T11:43:11;12.89;55.85
63202;DHT22;49296;48.188;11.566;2023-03-14T11:45:42;12.80;56.04
63202;DHT22;49296;48.188;11.566;2023-03-14T11:48:20;12.86;56.32
63202;DHT22;49296;48.188;11.566;2023-03-14T11:50:52;12.76;56.15
63202;DHT22;49296;48.188;11.566;2023-03-14T11:53:22;12.67;56.98
63202;DHT22;49296;48.188;11.566;2023-03-14T11:56:09;12.66;56.61
63202;DHT22;49296;48.188;11.566;2023-03-14T11:58:53;12.63;57.14
63202;DHT22;49296;48.188;11.566;2023-03-14T12:01:28;12.63;57.23
63202;DHT22;49296;48.188;11.566;2023-03-14T12:04:03;12.60;57.36
63202;DHT22;49296;48.188;11.566;2023-03-14T12:06:40;12.59;57.28
63202;DHT22;49296;48.188;11.566;2023-03-14T12:09:10;12.59;56.96
63202;DHT22;49296;48.188;11.566;2023-03-14T12:11:40;12.65;56.96
63202;DHT22;49296;48.188;11.566;2023-03-14T12:14:22;12.60;56.78
63202;DHT22;49296;48.188;11.566;2023-03-14T12:16:54;12.57;56.07
63202;DHT22;49296;48.188;11.566;2023-03-14T12:19:31;12.53;56.17
63202;DHT22;49296;48.188;11.566;2023-03-14T12:22:06;12.55;55.93
63202;DHT22;49296;48.188;11.566;2023-03-14T12:24:36;12.48;56.00
63202;DHT22;49296;48.188;11.566;2023-03-14T12:27:10;12.50;55.96
63202;DHT22;49296;48.188;11.566;2023-03-14T12:29:58;12.45;56.50
63202;DHT22;49296;48.188;11.566;2023-03-14T12:32:27;12.46;56.64
63202;DHT22;49296;48.188;11.566;2023-03-14T12:34:53;12.53;56.75
63202;DHT22;49296;48.188;11.566;2023-03-14T12:37:26;12.57;56.78
63202;DHT22;49296;48.188;11.566;2023-03-14T12:40:06;12.63;57.02
63202;DHT22;49296;48.188;11.566;2023-03-14T12:42:43;12.84;56.37
63202;DHT22;49296;48.188;11.566;2023-03-14T12:45:22;12.86;56.12
63202;DHT22;49296;48.188;11.566;2023-03-14T12:47:53;12.82;55.99
63202;DHT22;49296;48.188;11.566;2023-03-14T12:50:25;12.94;56.23
63202;DHT22;49296;48.188;11.566;2023-03-14T12:55:54;12.67;56.06
63202;DHT22;49296;48.188;11.566;2023-03-14T12:58:29;12.60;56.80
63202;DHT22;49296;48.188;11.566;2023-03-14T13:01:00;12.46;56.95
63202;DHT22;49296;48.188;11.566;2023-03-14T13:03:39;12.48;57.28
63202;DHT22;49296;48.188;11.566;2023-03-14T13:06:09;12.41;57.31
63202;DHT22;49296;48.188;11.566;2023-03-14T13:08:39;12.25;57.46
63202;DHT22;49296;48.188;11.566;2023-03-14T13:11:09;12.10;57.86
63202;DHT22;49296;48.188;11.566;2023-03-14T13:13:41;12.03;58.25
63202;DHT22;49296;48.188;11.566;2023-03-14T13:16:14;11.98;58.18
63202;DHT22;49296;48.188;11.566;2023-03-14T13:18:44;12.01;58.24
63202;DHT22;49296;48.188;11.566;2023-03-14T13:21:14;11.87;58.51
63202;DHT22;49296;48.188;11.566;2023-03-14T13:23:54;11.83;58.76
63202;DHT22;49296;48.188;11.566;2023-03-14T13:26:21;11.95;59.02
63202;DHT22;49296;48.188;11.566;2023-03-14T13:28:49;12.03;59.11
63202;DHT22;49296;48.188;11.566;2023-03-14T13:31:21;12.00;59.51
63202;DHT22;49296;48.188;11.566;2023-03-14T13:33:58;11.87;60.07
63202;DHT22;49296;48.188;11.566;2023-03-14T13:36:25;11.73;60.69
63202;DHT22;49296;48.188;11.566;2023-03-14T13:38:56;11.72;61.45
63202;DHT22;49296;48.188;11.566;2023-03-14T13:41:24;11.52;62.83
63202;DHT22;49296;48.188;11.566;2023-03-14T13:43:51;11.38;64.43
63202;DHT22;49296;48.188;11.566;2023-03-14T13:46:21;11.27;64.65
63202;DHT22;49296;48.188;11.566;2023-03-14T13:48:50;10.97;64.34
63202;DHT22;49296;48.188;11.566;2023-03-14T13:51:21;10.65;64.75
63202;DHT22;49296;48.188;11.566;2023-03-14T13:53:51;10.76;64.42
63202;DHT22;49296;48.188;11.566;2023-03-14T13:56:19;10.72;64.57
63202;DHT22;49296;48.188;11.566;2023-03-14T13:58:46;10.72;64.81
63202;DHT22;49296;48.188;11.566;2023-03-14T14:01:16;10.52;64.60
63202;DHT22;49296;48.188;11.566;2023-03-14T14:03:45;10.52;64.82
63202;DHT22;49296;48.188;11.566;2023-03-14T14:06:23;10.35;65.03
63202;DHT22;49296;48.188;11.566;2023-03-14T14:08:52;10.21;65.76
63202;DHT22;49296;48.188;11.566;2023-03-14T14:11:25;10.03;67.45
63202;DHT22;49296;48.188;11.566;2023-03-14T14:13:55;10.00;68.98
63202;DHT22;49296;48.188;11.566;2023-03-14T14:16:24;9.75;70.81
63202;DHT22;49296;48.188;11.566;2023-03-14T14:18:55;9.54;71.61
63202;DHT22;49296;48.188;11.566;2023-03-14T14:21:23;9.35;72.38
63202;DHT22;49296;48.188;11.566;2023-03-14T14:23:51;9.31;73.66
63202;DHT22;49296;48.188;11.566;2023-03-14T14:26:19;9.28;73.52
63202;DHT22;49296;48.188;11.566;2023-03-14T14:28:46;9.20;73.85
63202;DHT22;49296;48.188;11.566;2023-03-14T14:31:20;9.20;74.42
63202;DHT22;49296;48.188;11.566;2023-03-14T14:33:53;8.99;75.23
63202;DHT22;49296;48.188;11.566;2023-03-14T14:36:24;8.97;76.40
63202;DHT22;49296;48.188;11.566;2023-03-14T14:38:52;8.95;76.98
63202;DHT22;49296;48.188;11.566;2023-03-14T14:41:19;8.86;76.84
63202;DHT22;49296;48.188;11.566;2023-03-14T14:43:46;8.68;77.60
63202;DHT22;49296;48.188;11.566;2023-03-14T14:46:18;8.75;77.18
63202;DHT22;49296;48.188;11.566;2023-03-14T14:48:46;8.67;76.26
63202;DHT22;49296;48.188;11.566;2023-03-14T14:51:24;8.59;76.38
63202;DHT22;49296;48.188;11.566;2023-03-14T14:54:02;8.48;76.43
63202;DHT22;49296;48.188;11.566;2023-03-14T14:56:29;8.40;75.84
63202;DHT22;49296;48.188;11.566;2023-03-14T14:58:58;8.27;75.69
63202;DHT22;49296;48.188;11.566;2023-03-14T15:01:31;8.26;75.98
63202;DHT22;49296;48.188;11.566;2023-03-14T15:03:59;8.29;75.20
63202;DHT22;49296;48.188;11.566;2023-03-14T15:06:29;8.38;74.72
63202;DHT22;49296;48.188;11.566;2023-03-14T15:08:57;8.38;74.75
63202;DHT22;49296;48.188;11.566;2023-03-14T15:11:25;8.36;74.41
63202;DHT22;49296;48.188;11.566;2023-03-14T15:13:53;8.45;73.71
63202;DHT22;49296;48.188;11.566;2023-03-14T15:16:21;8.38;73.75
63202;DHT22;49296;48.188;11.566;2023-03-14T15:18:52;8.44;73.66
63202;DHT22;49296;48.188;11.566;2023-03-14T15:21:19;8.34;74.58
63202;DHT22;49296;48.188;11.566;2023-03-14T15:23:47;8.33;75.41
63202;DHT22;49296;48.188;11.566;2023-03-14T15:26:16;8.23;77.03
63202;DHT22;49296;48.188;11.566;2023-03-14T15:28:43;8.14;78.94
63202;DHT22;49296;48.188;11.566;2023-03-14T15:31:12;8.09;79.91
63202;DHT22;49296;48.188;11.566;2023-03-14T15:33:39;7.70;81.08